sensor_id;sensor_type;location;lat;lon;timestamp;temperature;humidity
4431;DHT22;2228;48.140;11.488;2023-09-08T11:47:31;33.50;99.90
4431;DHT22;2228;48.140;11.488;2023-09-08T11:49:58;33.10;99.90
4431;DHT22;2228;48.140;11.488;2023-09-08T11:52:27;34.10;99.90
4431;DHT22;2228;48.140;11.488;2023-09-08T11:54:55;34.40;99.90
4431;DHT22;2228;48.140;11.488;2023-09-08T11:57:22;34.20;99.90
4431;DHT22;2228;48.140;11.488;2023-09-08T11:59:50;33.70;99.90
4431;DHT22;2228;48.140;11.488;2023-09-08T12:02:18;34.70;99.90
4431;DHT22;2228;48.140;11.488;2023-09-08T12:04:46;34.10;99.90
4431;DHT22;2228;48.140;11.488;2023-09-08T12:07:13;34.00;99.90
4431;DHT22;2228;48.140;11.488;2023-09-08T12:09:42;33.60;99.90
4431;DHT22;2228;48.140;11.488;2023-09-08T12:12:11;33.80;99.90
4431;DHT22;2228;48.140;11.488;2023-09-08T12:14:40;33.40;99.90
4431;DHT22;2228;48.140;11.488;2023-09-08T12:17:08;32.60;99.90
4431;DHT22;2228;48.140;11.488;2023-09-08T12:19:35;31.00;99.90
4431;DHT22;2228;48.140;11.488;2023-09-08T12:22:06;32.20;99.90
4431;DHT22;2228;48.140;11.488;2023-09-08T12:24:50;32.70;99.90
4431;DHT22;2228;48.140;11.488;2023-09-08T12:27:17;32.80;99.90
4431;DHT22;2228;48.140;11.488;2023-09-08T12:29:55;32.90;99.90
4431;DHT22;2228;48.140;11.488;2023-09-08T12:32:22;33.00;99.90
4431;DHT22;2228;48.140;11.488;2023-09-08T12:34:50;34.40;99.90
4431;DHT22;2228;48.140;11.488;2023-09-08T12:37:21;33.50;99.90
4431;DHT22;2228;48.140;11.488;2023-09-08T12:39:48;33.80;99.90
4431;DHT22;2228;48.140;11.488;2023-09-08T12:42:15;34.00;99.90
4431;DHT22;2228;48.140;11.488;2023-09-08T12:44:43;34.70;99.90
4431;DHT22;2228;48.140;11.488;2023-09-08T12:47:10;35.80;99.90
4431;DHT22;2228;48.140;11.488;2023-09-08T12:49:38;35.90;99.90
4431;DHT22;2228;48.140;11.488;2023-09-08T12:52:05;36.10;99.90
4431;DHT22;2228;48.140;11.488;2023-09-08T12:54:33;36.20;99.90
4431;DHT22;2228;48.140;11.488;2023-09-08T12:57:01;36.20;99.90
4431;DHT22;2228;48.140;11.488;2023-09-08T12:59:28;35.80;99.90
4431;DHT22;2228;48.140;11.488;2023-09-08T13:01:55;34.90;99.90
4431;DHT22;2228;48.140;11.488;2023-09-08T13:04:22;34.90;99.90
4431;DHT22;2228;48.140;11.488;2023-09-08T13:06:49;35.60;99.90
4431;DHT22;2228;48.140;11.488;2023-09-08T13:09:16;35.70;99.90
4431;DHT22;2228;48.140;11.488;2023-09-08T13:11:44;35.30;99.90
4431;DHT22;2228;48.140;11.488;2023-09-08T13:14:11;35.80;99.90
4431;DHT22;2228;48.140;11.488;2023-09-08T13:16:38;36.50;99.90
4431;DHT22;2228;48.140;11.488;2023-09-08T13:19:05;36.50;99.90
4431;DHT22;2228;48.140;11.488;2023-09-08T13:21:32;36.50;99.90
4431;DHT22;2228;48.140;11.488;2023-09-08T13:23:59;36.50;99.90
4431;DHT22;2228;48.140;11.488;2023-09-08T13:26:26;36.70;99.90
4431;DHT22;2228;48.140;11.488;2023-09-08T13:28:55;36.00;99.90
4431;DHT22;2228;48.140;11.488;2023-09-08T13:31:22;35.80;99.90
4431;DHT22;2228;48.140;11.488;2023-09-08T13:33:48;35.20;99.90
4431;DHT22;2228;48.140;11.488;2023-09-08T13:36:15;35.30;99.90
4431;DHT22;2228;48.140;11.488;2023-09-08T13:38:42;34.80;99.90
4431;DHT22;2228;48.140;11.488;2023-09-08T13:41:09;34.40;99.90
4431;DHT22;2228;48.140;11.488;2023-09-08T13:43:36;35.30;99.90
4431;DHT22;2228;48.140;11.488;2023-09-08T13:46:04;36.10;99.90
4431;DHT22;2228;48.140;11.488;2023-09-08T13:48:31;35.70;99.90
4431;DHT22;2228;48.140;11.488;2023-09-08T13:51:01;35.70;99.90
4431;DHT22;2228;48.140;11.488;2023-09-08T13:53:28;35.30;99.90
4431;DHT22;2228;48.140;11.488;2023-09-08T13:55:56;35.30;99.90
4431;DHT22;2228;48.140;11.488;2023-09-08T13:58:22;35.20;99.90
4431;DHT22;2228;48.140;11.488;2023-09-08T14:00:49;36.00;99.90
4431;DHT22;2228;48.140;11.488;2023-09-08T14:03:18;36.60;99.90
4431;DHT22;2228;48.140;11.488;2023-09-08T14:05:45;36.40;99.90
4431;DHT22;2228;48.140;11.488;2023-09-08T14:08:11;37.00;99.90
4431;DHT22;2228;48.140;11.488;2023-09-08T14:10:38;36.40;99.90
4431;DHT22;2228;48.140;11.488;2023-09-08T14:13:05;36.10;99.90
4431;DHT22;2228;48.140;11.488;2023-09-08T14:15:32;36.70;99.90
4431;DHT22;2228;48.140;11.488;2023-09-08T14:17:59;36.80;99.90
4431;DHT22;2228;48.140;11.488;2023-09-08T14:20:28;36.70;99.90
4431;DHT22;2228;48.140;11.488;2023-09-08T14:22:55;36.90;99.90
4431;DHT22;2228;48.140;11.488;2023-09-08T14:25:22;37.50;99.90
4431;DHT22;2228;48.140;11.488;2023-09-08T14:27:49;38.10;99.90
4431;DHT22;2228;48.140;11.488;2023-09-08T14:30:15;39.20;99.90
4431;DHT22;2228;48.140;11.488;2023-09-08T14:32:42;39.90;99.90
4431;DHT22;2228;48.140;11.488;2023-09-08T14:35:10;40.30;99.90
4431;DHT22;2228;48.140;11.488;2023-09-08T14:37:38;40.30;99.90
4431;DHT22;2228;48.140;11.488;2023-09-08T14:40:06;40.10;99.90
4431;DHT22;2228;48.140;11.488;2023-09-08T14:42:33;40.00;99.90
4431;DHT22;2228;48.140;11.488;2023-09-08T14:45:00;39.60;99.90
4431;DHT22;2228;48.140;11.488;2023-09-08T14:47:27;38.70;99.90
4431;DHT22;2228;48.140;11.488;2023-09-08T14:49:54;38.40;99.90
4431;DHT22;2228;48.140;11.488;2023-09-08T14:52:22;38.50;99.90
4431;DHT22;2228;48.140;11.488;2023-09-08T14:54:50;38.60;99.90
4431;DHT22;2228;48.140;11.488;2023-09-08T14:57:17;39.30;99.90
4431;DHT22;2228;48.140;11.488;2023-09-08T14:59:44;39.30;99.90
4431;DHT22;2228;48.140;11.488;2023-09-08T15:02:11;40.00;99.90
4431;DHT22;2228;48.140;11.488;2023-09-08T15:04:38;40.50;99.90
4431;DHT22;2228;48.140;11.488;2023-09-08T15:07:05;39.60;99.90
4431;DHT22;2228;48.140;11.488;2023-09-08T15:09:32;38.50;99.90
4431;DHT22;2228;48.140;11.488;2023-09-08T15:12:00;37.50;99.90
4431;DHT22;2228;48.140;11.488;2023-09-08T15:14:27;36.50;99.90
4431;DHT22;2228;48.140;11.488;2023-09-08T15:16:54;36.00;99.90
4431;DHT22;2228;48.140;11.488;2023-09-08T15:19:21;36.00;99.90
4431;DHT22;2228;48.140;11.488;2023-09-08T15:21:48;36.30;99.90
4431;DHT22;2228;48.140;11.488;2023-09-08T15:24:15;37.20;99.90
4431;DHT22;2228;48.140;11.488;2023-09-08T15:26:42;37.70;99.90
4431;DHT22;2228;48.140;11.488;2023-09-08T15:29:12;37.50;99.90
4431;DHT22;2228;48.140;11.488;2023-09-08T15:31:40;37.30;99.90
4431;DHT22;2228;48.140;11.488;2023-09-08T15:34:07;36.50;99.90
4431;DHT22;2228;48.140;11.488;2023-09-08T15:36:35;36.80;99.90
4431;DHT22;2228;48.140;11.488;2023-09-08T15:39:02;37.30;99.90
4431;DHT22;2228;48.140;11.488;2023-09-08T15:41:29;37.60;99.90
4431;DHT22;2228;48.140;11.488;2023-09-08T15:43:56;37.10;99.90
4431;DHT22;2228;48.140;11.488;2023-09-08T15:46:24;36.80;99.90
4431;DHT22;2228;48.140;11.488;2023-09-08T15:48:51;37.00;99.90
4431;DHT22;2228;48.140;11.488;2023-09-08T15:51:18;37.40;99.90
4431;DHT22;2228;48.140;11.488;2023-09-08T15:53:45;38.10;99.90
4431;DHT22;2228;48.140;11.488;2023-09-08T15:56:12;38.70;99.90
4431;DHT22;2228;48.140;11.488;2023-09-08T15:58:39;39.20;99.90
4431;DHT22;2228;48.140;11.488;2023-09-08T16:01:06;39.00;99.90
4431;DHT22;2228;48.140;11.488;2023-09-08T16:03:35;38.80;99.90
4431;DHT22;2228;48.140;11.488;2023-09-08T16:06:02;38.80;99.90
4431;DHT22;2228;48.140;11.488;2023-09-08T16:08:29;38.90;99.90
4431;DHT22;2228;48.140;11.488;2023-09-08T16:10:56;38.80;99.90
4431;DHT22;2228;48.140;11.488;2023-09-08T16:13:22;39.00;99.90
4431;DHT22;2228;48.140;11.488;2023-09-08T16:15:49;38.70;99.90
4431;DHT22;2228;48.140;11.488;2023-09-08T16:18:16;37.90;99.90
4431;DHT22;2228;48.140;11.488;2023-09-08T16:20:45;37.60;99.90
4431;DHT22;2228;48.140;11.488;2023-09-08T16:23:11;37.20;99.90
4431;DHT22;2228;48.140;11.488;2023-09-08T16:25:38;37.10;99.90
4431;DHT22;2228;48.140;11.488;2023-09-08T16:28:06;37.20;99.90
4431;DHT22;2228;48.140;11.488;2023-09-08T16:30:34;37.80;99.90
4431;DHT22;2228;48.140;11.488;2023-09-08T16:33:01;37.80;99.90
4431;DHT22;2228;48.140;11.488;2023-09-08T16:35:28;37.80;99.90
4431;DHT22;2228;48.140;11.488;2023-09-08T16:37:56;37.60;99.90
4431;DHT22;2228;48.140;11.488;2023-09-08T16:40:23;37.70;99.90
4431;DHT22;2228;48.140;11.488;2023-09-08T16:42:49;37.60;99.90
4431;DHT22;2228;48.140;11.488;2023-09-08T16:45:17;37.50;99.90
4431;DHT22;2228;48.140;11.488;2023-09-08T16:47:44;37.40;99.90
4431;DHT22;2228;48.140;11.488;2023-09-08T16:50:10;37.40;99.90
4431;DHT22;2228;48.140;11.488;2023-09-08T16:52:37;37.30;99.90
4431;DHT22;2228;48.140;11.488;2023-09-08T16:55:06;37.70;99.90
4431;DHT22;2228;48.140;11.488;2023-09-08T16:57:37;36.70;99.90
4431;DHT22;2228;48.140;11.488;2023-09-08T17:00:05;35.80;99.90
4431;DHT22;2228;48.140;11.488;2023-09-08T17:02:33;34.70;99.90
4431;DHT22;2228;48.140;11.488;2023-09-08T17:05:00;33.50;99.90
4431;DHT22;2228;48.140;11.488;2023-09-08T17:07:27;32.40;99.90
4431;DHT22;2228;48.140;11.488;2023-09-08T17:09:54;31.50;99.90
4431;DHT22;2228;48.140;11.488;2023-09-08T17:12:22;30.10;99.90
4431;DHT22;2228;48.140;11.488;2023-09-08T17:14:49;29.10;99.90
4431;DHT22;2228;48.140;11.488;2023-09-08T17:17:16;29.30;99.90
4431;DHT22;2228;48.140;11.488;2023-09-08T17:19:42;29.30;99.90
4431;DHT22;2228;48.140;11.488;2023-09-08T17:22:09;27.80;99.90
4431;DHT22;2228;48.140;11.488;2023-09-08T17:24:36;27.70;99.90
4431;DHT22;2228;48.140;11.488;2023-09-08T17:27:03;27.40;99.90
4431;DHT22;2228;48.140;11.488;2023-09-08T17:29:32;27.10;99.90
4431;DHT22;2228;48.140;11.488;2023-09-08T17:31:59;27.00;99.90
4431;DHT22;2228;48.140;11.488;2023-09-08T17:34:26;26.50;99.90
4431;DHT22;2228;48.140;11.488;2023-09-08T17:36:54;26.20;99.90
4431;DHT22;2228;48.140;11.488;2023-09-08T17:39:22;26.00;99.90
4431;DHT22;2228;48.140;11.488;2023-09-08T17:41:49;25.80;99.90
4431;DHT22;2228;48.140;11.488;2023-09-08T17:44:15;25.70;99.90
4431;DHT22;2228;48.140;11.488;2023-09-08T17:46:44;25.40;99.90
4431;DHT22;2228;48.140;11.488;2023-09-08T17:49:11;25.20;99.90
4431;DHT22;2228;48.140;11.488;2023-09-08T17:51:37;26.00;99.90
4431;DHT22;2228;48.140;11.488;2023-09-08T17:54:05;25.00;99.90
